Egmondgracht — PDWG — position and weather

sailwx.info

Track history (hours):
 
Tides and Currents Weather Stations Pressure Air Temp Water Temp Dewpoint Dewpoint Depression Visibility Wind Speed Wind Dir Waves Ship Positions

Egmondgracht

Last reported at 2017-Jan-13 21:22 UTC. Time now 2017-Jan-18 06:01 UTC.
Position N 51°46' E 002°45'.

Length 136 m; beam 19 m; draft 9 m.

Type: Cargo ship. MMSI: 245716000.

Date/timePositionNaut miles runAvg speedWind from/ knotsBaromVisibWave heightAir tempDewpointWater temp
2017-Jan-13 21:22N 51°46' E 002°45'2 1.6
2017-Jan-13 20:27N 51°45' E 002°46'4 3.5
2017-Jan-13 19:19N 51°44' E 002°53'2 3.0
2017-Jan-13 18:32N 51°44' E 002°56'3 3.3
2017-Jan-13 17:31N 51°44' E 003°02'2 2.2
2017-Jan-13 16:23N 51°43' E 003°06'1 1.3
2017-Jan-13 15:25N 51°43' E 003°08'8 3.8
2017-Jan-13 13:11N 51°50' E 002°60'2 3.3
2017-Jan-13 12:30N 51°48' E 002°57'5 1.6
2017-Jan-13 09:33N 51°44' E 002°53'2 1.7
2017-Jan-13 08:17N 51°44' E 002°56'12 2.3
2017-Jan-13 03:03N 51°48' E 003°14'1 1.6
2017-Jan-13 02:30N 51°48' E 003°16'2 1.6
2017-Jan-13 01:28N 51°48' E 003°18'2 0.9
2017-Jan-12 23:05N 51°47' E 003°22'0 0.1
2017-Jan-12 22:29N 51°47' E 003°22'0 0.1
2017-Jan-12 19:11N 51°47' E 003°22'0 0.1
2017-Jan-12 18:05N 51°48' E 003°22'0 0.0
2017-Jan-12 17:23N 51°48' E 003°22'5 6.1
2017-Jan-12 16:31N 51°48' E 003°13'3 0.4
2017-Jan-12 08:29N 51°45' E 003°13'1 0.3
2017-Jan-12 04:05N 51°46' E 003°13'4 0.7
2017-Jan-11 22:09N 51°45' E 003°20'1 0.1
2017-Jan-11 15:32N 51°46' E 003°20'0 0.0
2017-Jan-11 14:26N 51°46' E 003°20'0 0.0
2017-Jan-11 13:32N 51°46' E 003°20'0 0.0
2017-Jan-11 12:32N 51°46' E 003°20'0 0.0
2017-Jan-11 11:14N 51°46' E 003°20'0 0.0
2017-Jan-11 07:32N 51°46' E 003°20'0 0.0
2017-Jan-11 02:05N 51°46' E 003°20'0 0.0
2017-Jan-11 00:19N 51°46' E 003°20'0 0.0
2017-Jan-10 23:31N 51°46' E 003°20'0 0.0
2017-Jan-10 22:28N 51°46' E 003°20'0 0.1
2017-Jan-10 20:31N 51°46' E 003°19'0 0.0
2017-Jan-10 19:32N 51°46' E 003°19'0 0.0
2017-Jan-10 18:31N 51°46' E 003°19'1 0.9
2017-Jan-10 17:30N 51°45' E 003°18'9 9.7
2017-Jan-10 16:33N 51°36' E 003°23'1313.3
2017-Jan-10 15:33N 51°26' E 003°35'1111.2
2017-Jan-10 14:33N 51°21' E 003°52'10 9.9
2017-Jan-10 13:33N 51°22' E 004°07'6 6.3
2017-Jan-10 12:33N 51°21' E 004°17'0 0.0
2017-Jan-10 11:34N 51°21' E 004°17'4 4.1
2017-Jan-10 10:34N 51°17' E 004°20'1 1.4
2017-Jan-10 09:31N 51°16' E 004°22'0 0.0
2017-Jan-10 08:28N 51°16' E 004°22'0 0.0
2017-Jan-10 07:28N 51°16' E 004°22'0 0.0
2017-Jan-10 06:31N 51°16' E 004°22'0 0.0
2017-Jan-10 05:31N 51°16' E 004°22'0 0.0
2017-Jan-10 04:31N 51°16' E 004°22'0 0.0
2017-Jan-10 03:28N 51°16' E 004°22'0 0.0
2017-Jan-10 02:31N 51°16' E 004°22'0 0.0
2017-Jan-10 01:28N 51°16' E 004°22'0 0.0
2017-Jan-10 00:28N 51°16' E 004°22'0 0.0
2017-Jan-09 23:28N 51°16' E 004°22'0 0.0
2017-Jan-09 22:31N 51°16' E 004°22'0 0.0
2017-Jan-09 21:28N 51°16' E 004°22'0 0.0
2017-Jan-09 20:28N 51°16' E 004°22'0 0.0
2017-Jan-09 19:31N 51°16' E 004°22'0 0.0
2017-Jan-09 18:31N 51°16' E 004°22'0 0.0
2017-Jan-09 17:31N 51°16' E 004°22'0 0.0
2017-Jan-09 16:31N 51°16' E 004°22'0 0.0
2017-Jan-09 15:31N 51°16' E 004°22'0 0.0
2017-Jan-09 14:31N 51°16' E 004°22'0 0.0
2017-Jan-09 13:31N 51°16' E 004°22'0 0.0
2017-Jan-09 12:31N 51°16' E 004°22'0 0.0
2017-Jan-09 11:31N 51°16' E 004°22'0 0.0
2017-Jan-09 10:31N 51°16' E 004°22'0 0.0
2017-Jan-09 09:31N 51°16' E 004°22'0 0.0
2017-Jan-09 08:28N 51°16' E 004°22'0 0.1
2017-Jan-09 07:31N 51°16' E 004°22'0 0.0
2017-Jan-09 06:28N 51°16' E 004°22'0 0.0
2017-Jan-09 05:31N 51°16' E 004°22'0 0.0
2017-Jan-09 04:31N 51°16' E 004°22'0 0.0
2017-Jan-09 03:34N 51°16' E 004°22'0 0.0
2017-Jan-09 02:33N 51°16' E 004°22'0 0.0
2017-Jan-09 01:33N 51°16' E 004°22'0 0.0
2017-Jan-09 00:33N 51°16' E 004°22'0 0.0
2017-Jan-08 23:33N 51°16' E 004°22'0 0.0
2017-Jan-08 22:33N 51°16' E 004°22'0 0.0
2017-Jan-08 21:33N 51°16' E 004°22'0 0.0
2017-Jan-08 20:33N 51°16' E 004°22'0 0.0
2017-Jan-08 19:33N 51°16' E 004°22'0 0.0
2017-Jan-08 18:33N 51°16' E 004°22'0 0.0
2017-Jan-08 17:33N 51°16' E 004°22'0 0.0
2017-Jan-08 16:33N 51°16' E 004°22'0 0.0
2017-Jan-08 15:33N 51°16' E 004°22'0 0.0
2017-Jan-08 14:33N 51°16' E 004°22'0 0.0
2017-Jan-08 13:33N 51°16' E 004°22'0 0.0
2017-Jan-08 12:33N 51°16' E 004°22'0 0.0
2017-Jan-08 11:33N 51°16' E 004°22'0 0.0
2017-Jan-08 10:33N 51°16' E 004°22'0 0.0
2017-Jan-08 09:33N 51°16' E 004°22'0 0.0
2017-Jan-08 08:33N 51°16' E 004°22'0 0.0
2017-Jan-08 07:33N 51°16' E 004°22'0 0.0
2017-Jan-08 06:33N 51°16' E 004°22'0 0.0
2017-Jan-08 05:33N 51°16' E 004°22'0 0.0
2017-Jan-08 04:33N 51°16' E 004°22'0 0.0
2017-Jan-08 03:33N 51°16' E 004°22'0 0.0
2017-Jan-08 02:33N 51°16' E 004°22'0 0.0
2017-Jan-08 01:33N 51°16' E 004°22'0 0.0
2017-Jan-08 00:33N 51°16' E 004°22'0 0.0
2017-Jan-07 23:33N 51°16' E 004°22'0 0.0
2017-Jan-07 22:33N 51°16' E 004°22'0 0.0
2017-Jan-07 21:33N 51°16' E 004°22'0 0.0
2017-Jan-07 20:33N 51°16' E 004°22'0 0.0
2017-Jan-07 19:33N 51°16' E 004°22'0 0.0
2017-Jan-07 18:33N 51°16' E 004°22'0 0.0
2017-Jan-07 17:33N 51°16' E 004°22'0 0.0
2017-Jan-07 16:34N 51°16' E 004°22'5 5.4
2017-Jan-07 15:33N 51°21' E 004°18'0 0.3
2017-Jan-07 14:33N 51°21' E 004°17'1 1.0
2017-Jan-07 13:33N 51°21' E 004°15'7 7.0
2017-Jan-07 12:32N 51°22' E 004°04'6 5.8
2017-Jan-07 11:33N 51°22' E 003°55'9 8.8
2017-Jan-07 10:33N 51°25' E 003°42'10 9.9
2017-Jan-07 09:33N 51°25' E 003°26'1413.7
2017-Jan-07 08:34N 51°24' E 003°04'1413.9
2017-Jan-07 07:34N 51°22' E 002°42'8 7.8
2017-Jan-07 06:33N 51°22' E 002°30'1111.2
2017-Jan-07 05:34N 51°17' E 002°14'1413.9
2017-Jan-07 04:34N 51°10' E 001°55'1313.1
2017-Jan-07 03:34N 51°02' E 001°38'1612.0
2017-Jan-07 02:16N 50°49' E 001°24'5812.1
2017-Jan-06 21:26N 50°20' E 000°04'1112.5
2017-Jan-06 20:33N 50°17' W 000°12'2612.2
2017-Jan-06 18:27N 50°11' W 000°51'1112.7
2017-Jan-06 17:33N 50°08' W 001°08'1413.7
2017-Jan-06 16:33N 50°04' W 001°29'1514.8
2017-Jan-06 15:34N 49°60' W 001°50'1615.6
2017-Jan-06 14:33N 49°56' W 002°14'8914.7
2017-Jan-06 08:31N 49°17' W 004°17'1414.2
2017-Jan-06 07:33N 49°10' W 004°35'1514.1
2017-Jan-06 06:30N 49°03' W 004°55'1313.5
2017-Jan-06 05:33N 48°56' W 005°12'1313.2
2017-Jan-06 04:33N 48°50' W 005°29'1212.0
2017-Jan-06 03:32N 48°41' W 005°42'2613.0
2017-Jan-06 01:31N 48°17' W 006°00'55613.4
2017-Jan-04 08:11N 39°27' W 009°51'913.9
2017-Jan-04 07:33N 39°18' W 009°51'1414.0
2017-Jan-04 06:33N 39°04' W 009°52'1413.9
2017-Jan-04 05:33N 38°51' W 009°51'1413.7
2017-Jan-04 04:33N 38°37' W 009°49'1413.8
2017-Jan-04 03:33N 38°24' W 009°44'1313.4
2017-Jan-04 02:33N 38°11' W 009°39'1313.4
2017-Jan-04 01:33N 37°58' W 009°38'1313.4
2017-Jan-04 00:33N 37°44' W 009°35'  
Track history (hours):
 
Tides and Currents Weather Stations Pressure Air Temp Water Temp Dewpoint Dewpoint Depression Visibility Wind Speed Wind Dir Waves Ship Positions

Egmondgracht

Last reported at 2017-Jan-13 21:22 UTC. Time now 2017-Jan-18 06:01 UTC.
Position N 51°46' E 002°45'.

Length 136 m; beam 19 m; draft 9 m.

Type: Cargo ship. MMSI: 245716000.

Date/timePositionNaut miles runAvg speedWind from/ knotsBaromVisibWave heightAir tempDewpointWater temp
2017-Jan-13 21:22N 51°46' E 002°45'2 1.6
2017-Jan-13 20:27N 51°45' E 002°46'4 3.5
2017-Jan-13 19:19N 51°44' E 002°53'2 3.0
2017-Jan-13 18:32N 51°44' E 002°56'3 3.3
2017-Jan-13 17:31N 51°44' E 003°02'2 2.2
2017-Jan-13 16:23N 51°43' E 003°06'1 1.3
2017-Jan-13 15:25N 51°43' E 003°08'8 3.8
2017-Jan-13 13:11N 51°50' E 002°60'2 3.3
2017-Jan-13 12:30N 51°48' E 002°57'5 1.6
2017-Jan-13 09:33N 51°44' E 002°53'2 1.7
2017-Jan-13 08:17N 51°44' E 002°56'12 2.3
2017-Jan-13 03:03N 51°48' E 003°14'1 1.6
2017-Jan-13 02:30N 51°48' E 003°16'2 1.6
2017-Jan-13 01:28N 51°48' E 003°18'2 0.9
2017-Jan-12 23:05N 51°47' E 003°22'0 0.1
2017-Jan-12 22:29N 51°47' E 003°22'0 0.1
2017-Jan-12 19:11N 51°47' E 003°22'0 0.1
2017-Jan-12 18:05N 51°48' E 003°22'0 0.0
2017-Jan-12 17:23N 51°48' E 003°22'5 6.1
2017-Jan-12 16:31N 51°48' E 003°13'3 0.4
2017-Jan-12 08:29N 51°45' E 003°13'1 0.3
2017-Jan-12 04:05N 51°46' E 003°13'4 0.7
2017-Jan-11 22:09N 51°45' E 003°20'1 0.1
2017-Jan-11 15:32N 51°46' E 003°20'0 0.0
2017-Jan-11 14:26N 51°46' E 003°20'0 0.0
2017-Jan-11 13:32N 51°46' E 003°20'0 0.0
2017-Jan-11 12:32N 51°46' E 003°20'0 0.0
2017-Jan-11 11:14N 51°46' E 003°20'0 0.0
2017-Jan-11 07:32N 51°46' E 003°20'0 0.0
2017-Jan-11 02:05N 51°46' E 003°20'0 0.0
2017-Jan-11 00:19N 51°46' E 003°20'0 0.0
2017-Jan-10 23:31N 51°46' E 003°20'0 0.0
2017-Jan-10 22:28N 51°46' E 003°20'0 0.1
2017-Jan-10 20:31N 51°46' E 003°19'0 0.0
2017-Jan-10 19:32N 51°46' E 003°19'0 0.0
2017-Jan-10 18:31N 51°46' E 003°19'1 0.9
2017-Jan-10 17:30N 51°45' E 003°18'9 9.7
2017-Jan-10 16:33N 51°36' E 003°23'1313.3
2017-Jan-10 15:33N 51°26' E 003°35'1111.2
2017-Jan-10 14:33N 51°21' E 003°52'10 9.9
2017-Jan-10 13:33N 51°22' E 004°07'6 6.3
2017-Jan-10 12:33N 51°21' E 004°17'0 0.0
2017-Jan-10 11:34N 51°21' E 004°17'4 4.1
2017-Jan-10 10:34N 51°17' E 004°20'1 1.4
2017-Jan-10 09:31N 51°16' E 004°22'0 0.0
2017-Jan-10 08:28N 51°16' E 004°22'0 0.0
2017-Jan-10 07:28N 51°16' E 004°22'0 0.0
2017-Jan-10 06:31N 51°16' E 004°22'0 0.0
2017-Jan-10 05:31N 51°16' E 004°22'0 0.0
2017-Jan-10 04:31N 51°16' E 004°22'0 0.0
2017-Jan-10 03:28N 51°16' E 004°22'0 0.0
2017-Jan-10 02:31N 51°16' E 004°22'0 0.0
2017-Jan-10 01:28N 51°16' E 004°22'0 0.0
2017-Jan-10 00:28N 51°16' E 004°22'0 0.0
2017-Jan-09 23:28N 51°16' E 004°22'0 0.0
2017-Jan-09 22:31N 51°16' E 004°22'0 0.0
2017-Jan-09 21:28N 51°16' E 004°22'0 0.0
2017-Jan-09 20:28N 51°16' E 004°22'0 0.0
2017-Jan-09 19:31N 51°16' E 004°22'0 0.0
2017-Jan-09 18:31N 51°16' E 004°22'0 0.0
2017-Jan-09 17:31N 51°16' E 004°22'0 0.0
2017-Jan-09 16:31N 51°16' E 004°22'0 0.0
2017-Jan-09 15:31N 51°16' E 004°22'0 0.0
2017-Jan-09 14:31N 51°16' E 004°22'0 0.0
2017-Jan-09 13:31N 51°16' E 004°22'0 0.0
2017-Jan-09 12:31N 51°16' E 004°22'0 0.0
2017-Jan-09 11:31N 51°16' E 004°22'0 0.0
2017-Jan-09 10:31N 51°16' E 004°22'0 0.0
2017-Jan-09 09:31N 51°16' E 004°22'0 0.0
2017-Jan-09 08:28N 51°16' E 004°22'0 0.1
2017-Jan-09 07:31N 51°16' E 004°22'0 0.0
2017-Jan-09 06:28N 51°16' E 004°22'0 0.0
2017-Jan-09 05:31N 51°16' E 004°22'0 0.0
2017-Jan-09 04:31N 51°16' E 004°22'0 0.0
2017-Jan-09 03:34N 51°16' E 004°22'0 0.0
2017-Jan-09 02:33N 51°16' E 004°22'0 0.0
2017-Jan-09 01:33N 51°16' E 004°22'0 0.0
2017-Jan-09 00:33N 51°16' E 004°22'0 0.0
2017-Jan-08 23:33N 51°16' E 004°22'0 0.0
2017-Jan-08 22:33N 51°16' E 004°22'0 0.0
2017-Jan-08 21:33N 51°16' E 004°22'0 0.0
2017-Jan-08 20:33N 51°16' E 004°22'0 0.0
2017-Jan-08 19:33N 51°16' E 004°22'0 0.0
2017-Jan-08 18:33N 51°16' E 004°22'0 0.0
2017-Jan-08 17:33N 51°16' E 004°22'0 0.0
2017-Jan-08 16:33N 51°16' E 004°22'0 0.0
2017-Jan-08 15:33N 51°16' E 004°22'0 0.0
2017-Jan-08 14:33N 51°16' E 004°22'0 0.0
2017-Jan-08 13:33N 51°16' E 004°22'0 0.0
2017-Jan-08 12:33N 51°16' E 004°22'0 0.0
2017-Jan-08 11:33N 51°16' E 004°22'0 0.0
2017-Jan-08 10:33N 51°16' E 004°22'0 0.0
2017-Jan-08 09:33N 51°16' E 004°22'0 0.0
2017-Jan-08 08:33N 51°16' E 004°22'0 0.0
2017-Jan-08 07:33N 51°16' E 004°22'0 0.0
2017-Jan-08 06:33N 51°16' E 004°22'0 0.0
2017-Jan-08 05:33N 51°16' E 004°22'0 0.0
2017-Jan-08 04:33N 51°16' E 004°22'0 0.0
2017-Jan-08 03:33N 51°16' E 004°22'0 0.0
2017-Jan-08 02:33N 51°16' E 004°22'0 0.0
2017-Jan-08 01:33N 51°16' E 004°22'0 0.0
2017-Jan-08 00:33N 51°16' E 004°22'0 0.0
2017-Jan-07 23:33N 51°16' E 004°22'0 0.0
2017-Jan-07 22:33N 51°16' E 004°22'0 0.0
2017-Jan-07 21:33N 51°16' E 004°22'0 0.0
2017-Jan-07 20:33N 51°16' E 004°22'0 0.0
2017-Jan-07 19:33N 51°16' E 004°22'0 0.0
2017-Jan-07 18:33N 51°16' E 004°22'0 0.0
2017-Jan-07 17:33N 51°16' E 004°22'0 0.0
2017-Jan-07 16:34N 51°16' E 004°22'5 5.4
2017-Jan-07 15:33N 51°21' E 004°18'0 0.3
2017-Jan-07 14:33N 51°21' E 004°17'1 1.0
2017-Jan-07 13:33N 51°21' E 004°15'7 7.0
2017-Jan-07 12:32N 51°22' E 004°04'6 5.8
2017-Jan-07 11:33N 51°22' E 003°55'9 8.8
2017-Jan-07 10:33N 51°25' E 003°42'10 9.9
2017-Jan-07 09:33N 51°25' E 003°26'1413.7
2017-Jan-07 08:34N 51°24' E 003°04'1413.9
2017-Jan-07 07:34N 51°22' E 002°42'8 7.8
2017-Jan-07 06:33N 51°22' E 002°30'1111.2
2017-Jan-07 05:34N 51°17' E 002°14'1413.9
2017-Jan-07 04:34N 51°10' E 001°55'1313.1
2017-Jan-07 03:34N 51°02' E 001°38'1612.0
2017-Jan-07 02:16N 50°49' E 001°24'5812.1
2017-Jan-06 21:26N 50°20' E 000°04'1112.5
2017-Jan-06 20:33N 50°17' W 000°12'2612.2
2017-Jan-06 18:27N 50°11' W 000°51'1112.7
2017-Jan-06 17:33N 50°08' W 001°08'1413.7
2017-Jan-06 16:33N 50°04' W 001°29'1514.8
2017-Jan-06 15:34N 49°60' W 001°50'1615.6
2017-Jan-06 14:33N 49°56' W 002°14'8914.7
2017-Jan-06 08:31N 49°17' W 004°17'1414.2
2017-Jan-06 07:33N 49°10' W 004°35'1514.1
2017-Jan-06 06:30N 49°03' W 004°55'1313.5
2017-Jan-06 05:33N 48°56' W 005°12'1313.2
2017-Jan-06 04:33N 48°50' W 005°29'1212.0
2017-Jan-06 03:32N 48°41' W 005°42'2613.0
2017-Jan-06 01:31N 48°17' W 006°00'55613.4
2017-Jan-04 08:11N 39°27' W 009°51'913.9
2017-Jan-04 07:33N 39°18' W 009°51'1414.0
2017-Jan-04 06:33N 39°04' W 009°52'1413.9
2017-Jan-04 05:33N 38°51' W 009°51'1413.7
2017-Jan-04 04:33N 38°37' W 009°49'1413.8
2017-Jan-04 03:33N 38°24' W 009°44'1313.4
2017-Jan-04 02:33N 38°11' W 009°39'1313.4
2017-Jan-04 01:33N 37°58' W 009°38'1313.4
2017-Jan-04 00:33N 37°44' W 009°35'  

Dump ship's entire track history